createdAt,value
2022-10-17T00:00:36.712Z,17.01
2022-10-17T00:03:03.343Z,17.01
2022-10-17T00:05:30.042Z,17.00
2022-10-17T00:07:56.425Z,16.98
2022-10-17T00:10:23.269Z,16.98
2022-10-17T00:12:51.513Z,16.97
2022-10-17T00:15:20.230Z,16.96
2022-10-17T00:17:46.636Z,16.95
2022-10-17T00:20:13.486Z,16.94
2022-10-17T00:22:39.908Z,16.92
2022-10-17T00:25:06.503Z,16.90
2022-10-17T00:27:41.335Z,16.91
2022-10-17T00:30:11.618Z,16.88
2022-10-17T00:32:38.067Z,16.85
2022-10-17T00:35:05.007Z,16.84
2022-10-17T00:37:32.313Z,16.83
2022-10-17T00:39:59.102Z,16.83
2022-10-17T00:42:28.052Z,16.82
2022-10-17T00:45:02.597Z,16.81
2022-10-17T00:47:30.395Z,16.80
2022-10-17T00:49:56.921Z,16.82
2022-10-17T00:52:28.313Z,16.82
2022-10-17T00:55:02.757Z,16.83
2022-10-17T00:57:31.718Z,16.82
2022-10-17T01:00:01.874Z,16.84
2022-10-17T01:02:28.870Z,16.84
2022-10-17T01:04:59.318Z,16.84
2022-10-17T01:07:27.642Z,16.84
2022-10-17T01:09:54.100Z,16.85
2022-10-17T01:12:29.086Z,16.86
2022-10-17T01:15:20.506Z,16.87
2022-10-17T01:18:08.069Z,16.87
2022-10-17T01:20:48.668Z,16.88
2022-10-17T01:23:59.988Z,16.87
2022-10-17T01:26:45.278Z,16.89
2022-10-17T01:29:35.743Z,16.90
2022-10-17T01:32:10.017Z,16.90
2022-10-17T01:34:46.804Z,16.92
2022-10-17T01:37:22.438Z,16.92
2022-10-17T01:40:00.183Z,16.93
2022-10-17T01:43:07.359Z,16.93
2022-10-17T01:45:40.614Z,16.96
2022-10-17T01:48:23.923Z,16.96
2022-10-17T01:51:09.349Z,16.97
2022-10-17T01:53:42.260Z,16.97
2022-10-17T01:56:11.398Z,16.98
2022-10-17T01:58:44.274Z,16.99
2022-10-17T02:01:12.751Z,16.99
2022-10-17T02:03:42.717Z,16.99
2022-10-17T02:06:09.169Z,17.01
2022-10-17T02:08:44.940Z,17.02
2022-10-17T02:11:19.004Z,17.04
2022-10-17T02:13:56.456Z,17.06
2022-10-17T02:16:44.817Z,17.07
2022-10-17T02:19:46.765Z,17.09
2022-10-17T02:22:23.647Z,17.09
2022-10-17T02:24:58.252Z,17.08
2022-10-17T02:27:34.973Z,17.10
2022-10-17T02:30:09.136Z,17.10
2022-10-17T02:33:00.856Z,17.10
2022-10-17T02:35:32.312Z,17.09
2022-10-17T02:38:00.246Z,17.08
2022-10-17T02:40:30.256Z,17.07
2022-10-17T02:42:59.533Z,17.08
2022-10-17T02:45:28.947Z,17.06
2022-10-17T02:48:06.369Z,17.05
2022-10-17T02:50:43.241Z,17.05
2022-10-17T02:53:15.465Z,17.04
2022-10-17T02:55:49.222Z,17.03
2022-10-17T02:58:22.765Z,17.01
2022-10-17T03:00:51.034Z,17.00
2022-10-17T03:03:27.233Z,17.01
2022-10-17T03:05:54.012Z,16.97
2022-10-17T03:08:21.479Z,16.96
2022-10-17T03:10:48.076Z,16.95
2022-10-17T03:13:15.740Z,16.93
2022-10-17T03:15:42.191Z,16.93
2022-10-17T03:18:08.670Z,16.91
2022-10-17T03:20:35.348Z,16.91
2022-10-17T03:23:01.948Z,16.91
2022-10-17T03:25:28.281Z,16.90
2022-10-17T03:27:55.066Z,16.89
2022-10-17T03:30:21.550Z,16.89
2022-10-17T03:32:47.903Z,16.89
2022-10-17T03:35:14.904Z,16.87
2022-10-17T03:37:41.699Z,16.87
2022-10-17T03:40:08.674Z,16.86
2022-10-17T03:42:35.035Z,16.86
2022-10-17T03:45:01.512Z,16.87
2022-10-17T03:47:28.852Z,16.86
2022-10-17T03:49:55.779Z,16.87
2022-10-17T03:52:22.218Z,16.86
2022-10-17T03:54:50.119Z,16.87
2022-10-17T03:57:17.539Z,16.86
2022-10-17T03:59:43.901Z,16.86
2022-10-17T04:02:10.594Z,16.86
2022-10-17T04:04:36.931Z,16.84
2022-10-17T04:07:03.463Z,16.84
2022-10-17T04:09:29.791Z,16.83
2022-10-17T04:11:56.107Z,16.82
2022-10-17T04:14:22.462Z,16.82
2022-10-17T04:16:48.819Z,16.82
2022-10-17T04:19:15.232Z,16.82
2022-10-17T04:21:41.747Z,16.83
2022-10-17T04:24:10.888Z,16.84
2022-10-17T04:26:37.384Z,16.83
2022-10-17T04:29:03.750Z,16.83
2022-10-17T04:31:30.094Z,16.84
2022-10-17T04:33:56.477Z,16.85
2022-10-17T04:36:23.354Z,16.86
2022-10-17T04:38:49.727Z,16.86
2022-10-17T04:41:18.343Z,16.87
2022-10-17T04:43:48.474Z,16.87
2022-10-17T04:46:17.583Z,16.89
2022-10-17T04:48:44.005Z,16.91
2022-10-17T04:51:15.275Z,16.94
2022-10-17T04:53:43.305Z,16.94
2022-10-17T04:56:18.243Z,16.97
2022-10-17T04:58:45.799Z,16.98
2022-10-17T05:01:14.860Z,17.00
2022-10-17T05:03:42.267Z,17.02
2022-10-17T05:06:14.687Z,17.06
2022-10-17T05:08:41.870Z,17.07
2022-10-17T05:11:23.908Z,17.11
2022-10-17T05:14:02.061Z,17.12
2022-10-17T05:16:29.359Z,17.14
2022-10-17T05:18:58.062Z,17.15
2022-10-17T05:21:26.737Z,17.15
2022-10-17T05:23:53.712Z,17.16
2022-10-17T05:26:20.557Z,17.16
2022-10-17T05:28:47.001Z,17.17
2022-10-17T05:31:13.571Z,17.18
2022-10-17T05:33:40.849Z,17.19
2022-10-17T05:36:07.615Z,17.20
2022-10-17T05:38:34.158Z,17.22
2022-10-17T05:41:02.301Z,17.24
2022-10-17T05:43:28.869Z,17.24
2022-10-17T05:45:55.740Z,17.25
2022-10-17T05:48:23.568Z,17.26
2022-10-17T05:50:49.948Z,17.26
2022-10-17T05:53:17.163Z,17.27
2022-10-17T05:55:43.519Z,17.28
2022-10-17T05:58:17.597Z,17.30
2022-10-17T06:00:48.658Z,17.31
2022-10-17T06:03:15.024Z,17.32
2022-10-17T06:05:41.479Z,17.32
2022-10-17T06:08:07.819Z,17.32
2022-10-17T06:10:34.184Z,17.33
2022-10-17T06:13:00.510Z,17.34
2022-10-17T06:15:26.882Z,17.33
2022-10-17T06:17:53.228Z,17.32
2022-10-17T06:20:19.579Z,17.32
2022-10-17T06:22:45.974Z,17.31
2022-10-17T06:25:12.472Z,17.30
2022-10-17T06:27:38.866Z,17.31
2022-10-17T06:30:05.651Z,17.30
2022-10-17T06:32:32.248Z,17.31
2022-10-17T06:34:59.044Z,17.33
2022-10-17T06:37:25.438Z,17.34
2022-10-17T06:39:51.798Z,17.38
2022-10-17T06:42:18.198Z,17.41
2022-10-17T06:44:44.520Z,17.45
2022-10-17T06:47:11.304Z,17.48
2022-10-17T06:49:38.119Z,17.52
2022-10-17T06:52:04.880Z,17.55
2022-10-17T06:54:31.432Z,17.61
2022-10-17T06:56:57.853Z,17.65
2022-10-17T06:59:24.300Z,17.67
2022-10-17T07:01:50.691Z,17.72
2022-10-17T07:04:17.236Z,17.76
2022-10-17T07:06:43.830Z,17.80
2022-10-17T07:09:10.439Z,17.83
2022-10-17T07:11:36.925Z,17.87
2022-10-17T07:14:03.382Z,17.92
2022-10-17T07:16:30.134Z,17.97
2022-10-17T07:18:56.823Z,18.01
2022-10-17T07:21:23.172Z,18.06
2022-10-17T07:23:49.624Z,18.10
2022-10-17T07:26:17.797Z,18.15
2022-10-17T07:28:46.064Z,18.20
2022-10-17T07:31:15.963Z,18.25
2022-10-17T07:33:43.735Z,18.29
2022-10-17T07:36:11.018Z,18.33
2022-10-17T07:38:37.990Z,18.37
2022-10-17T07:41:06.924Z,18.42
2022-10-17T07:43:33.854Z,18.47
2022-10-17T07:46:01.909Z,18.51
2022-10-17T07:48:29.747Z,18.56
2022-10-17T07:50:56.087Z,18.61
2022-10-17T07:53:22.570Z,18.64
2022-10-17T07:55:49.632Z,18.69
2022-10-17T07:58:16.445Z,18.74
2022-10-17T08:00:43.185Z,18.79
2022-10-17T08:03:10.848Z,18.84
2022-10-17T08:05:37.202Z,18.89
2022-10-17T08:08:03.618Z,18.94
2022-10-17T08:10:29.935Z,18.99
2022-10-17T08:12:57.701Z,19.06
2022-10-17T08:15:29.339Z,19.12
2022-10-17T08:17:58.753Z,19.18
2022-10-17T08:20:25.186Z,19.24
2022-10-17T08:22:53.247Z,19.30
2022-10-17T08:25:19.603Z,19.37
2022-10-17T08:27:45.942Z,19.43
2022-10-17T08:30:12.364Z,19.47
2022-10-17T08:32:38.958Z,19.53
2022-10-17T08:35:05.703Z,19.58
2022-10-17T08:37:32.744Z,19.65
2022-10-17T08:39:59.370Z,19.71
2022-10-17T08:42:31.709Z,19.78
2022-10-17T08:45:18.462Z,19.86
2022-10-17T08:47:48.434Z,19.91
2022-10-17T08:50:28.695Z,19.97
2022-10-17T08:53:05.910Z,20.03
2022-10-17T08:55:40.119Z,20.08
2022-10-17T08:58:25.975Z,20.14
2022-10-17T09:01:27.062Z,20.21
2022-10-17T09:04:27.679Z,20.30
2022-10-17T09:06:59.475Z,20.37
2022-10-17T09:09:34.711Z,20.42
2022-10-17T09:12:17.458Z,20.50
2022-10-17T09:15:00.947Z,20.57
2022-10-17T09:17:36.376Z,20.66
2022-10-17T09:20:19.856Z,20.76
2022-10-17T09:22:58.779Z,20.83
2022-10-17T09:25:26.457Z,20.90
2022-10-17T09:27:59.191Z,20.97
2022-10-17T09:30:47.309Z,21.07
2022-10-17T09:33:59.460Z,21.15
2022-10-17T09:36:32.723Z,21.24
2022-10-17T09:39:02.312Z,21.33
2022-10-17T09:41:47.389Z,21.41
2022-10-17T09:44:23.763Z,21.50
2022-10-17T09:47:27.966Z,21.61
2022-10-17T09:49:54.416Z,21.70
2022-10-17T09:52:39.100Z,21.81
2022-10-17T09:55:20.455Z,21.93
2022-10-17T09:57:57.573Z,22.02
2022-10-17T10:00:33.534Z,22.08
2022-10-17T10:03:15.340Z,22.12
2022-10-17T10:05:43.448Z,22.15
2022-10-17T10:08:16.165Z,22.19
2022-10-17T10:10:44.103Z,22.20
2022-10-17T10:13:20.370Z,22.23
2022-10-17T10:15:51.165Z,22.26
2022-10-17T10:21:11.038Z,22.39
2022-10-17T10:23:42.778Z,22.46
2022-10-17T10:26:22.645Z,22.55
2022-10-17T10:29:05.012Z,22.64
2022-10-17T10:31:35.733Z,22.73
2022-10-17T10:34:15.570Z,22.82
2022-10-17T10:36:49.717Z,22.91
2022-10-17T10:39:37.616Z,23.03
2022-10-17T10:42:08.439Z,23.13
2022-10-17T10:44:38.176Z,23.23
2022-10-17T10:47:19.006Z,23.36
2022-10-17T10:49:45.669Z,23.41
2022-10-17T10:52:19.691Z,23.48
2022-10-17T10:55:03.948Z,23.50
2022-10-17T10:57:33.874Z,23.51
2022-10-17T11:00:12.410Z,23.49
2022-10-17T11:03:25.111Z,23.45
2022-10-17T11:05:58.277Z,23.41
2022-10-17T11:08:40.842Z,23.35
2022-10-17T11:11:23.790Z,23.29
2022-10-17T11:13:59.399Z,23.21
2022-10-17T11:16:35.500Z,23.17
2022-10-17T11:19:25.058Z,23.12
2022-10-17T11:22:00.616Z,23.06
2022-10-17T11:24:37.952Z,23.02
2022-10-17T11:27:06.270Z,22.97
2022-10-17T11:29:35.778Z,22.93
2022-10-17T11:32:25.145Z,22.88
2022-10-17T11:35:01.976Z,22.84
2022-10-17T11:37:40.876Z,22.79
2022-10-17T11:40:24.462Z,22.75
2022-10-17T11:43:03.505Z,22.71
2022-10-17T11:45:39.054Z,22.68
2022-10-17T11:48:13.731Z,22.66
2022-10-17T11:53:45.252Z,22.73
2022-10-17T11:56:12.663Z,22.75
2022-10-17T11:59:24.410Z,22.83
2022-10-17T12:02:01.910Z,22.89
2022-10-17T12:04:49.707Z,22.96
2022-10-17T12:07:35.463Z,23.01
2022-10-17T12:10:21.134Z,23.06
2022-10-17T12:12:49.417Z,23.09
2022-10-17T12:15:23.383Z,23.13
2022-10-17T12:18:03.917Z,23.15
2022-10-17T12:20:35.504Z,23.17
2022-10-17T12:23:20.320Z,23.21
2022-10-17T12:25:54.995Z,23.21
2022-10-17T12:28:39.444Z,23.21
2022-10-17T12:31:29.651Z,23.22
2022-10-17T12:34:01.964Z,23.22
2022-10-17T12:36:28.316Z,23.21
2022-10-17T12:39:03.923Z,23.22
2022-10-17T12:41:39.448Z,23.22
2022-10-17T12:44:15.145Z,23.23
2022-10-17T12:46:47.843Z,23.25
2022-10-17T12:49:36.437Z,23.30
2022-10-17T12:52:23.181Z,23.35
2022-10-17T12:55:15.455Z,23.40
2022-10-17T12:57:50.471Z,23.43
2022-10-17T13:00:43.802Z,23.46
2022-10-17T13:03:24.803Z,23.47
2022-10-17T13:05:58.975Z,23.44
2022-10-17T13:08:29.966Z,23.40
2022-10-17T13:10:57.109Z,23.33
2022-10-17T13:13:45.341Z,23.28
2022-10-17T13:16:32.004Z,23.19
2022-10-17T13:18:59.905Z,23.11
2022-10-17T13:21:27.076Z,23.03
2022-10-17T13:23:54.366Z,22.96
2022-10-17T13:26:45.622Z,22.90
2022-10-17T13:29:15.102Z,22.84
2022-10-17T13:31:43.635Z,22.78
2022-10-17T13:34:21.859Z,22.73
2022-10-17T13:36:54.286Z,22.67
2022-10-17T13:39:44.905Z,22.61
2022-10-17T13:42:23.842Z,22.56
2022-10-17T13:44:50.634Z,22.50
2022-10-17T13:47:25.372Z,22.47
2022-10-17T13:49:55.173Z,22.43
2022-10-17T13:52:25.276Z,22.40
2022-10-17T13:54:53.851Z,22.35
2022-10-17T13:57:36.133Z,22.34
2022-10-17T14:00:33.621Z,22.32
2022-10-17T14:03:00.111Z,22.28
2022-10-17T14:05:27.882Z,22.26
2022-10-17T14:08:16.736Z,22.23
2022-10-17T14:10:44.646Z,22.20
2022-10-17T14:13:35.890Z,22.18
2022-10-17T14:16:04.039Z,22.17
2022-10-17T14:18:36.573Z,22.15
2022-10-17T14:21:40.527Z,22.14
2022-10-17T14:24:14.813Z,22.13
2022-10-17T14:26:48.706Z,22.12
2022-10-17T14:29:25.087Z,22.10
2022-10-17T14:31:58.724Z,22.08
2022-10-17T14:34:29.917Z,22.08
2022-10-17T14:36:57.301Z,22.05
2022-10-17T14:39:26.174Z,22.05
2022-10-17T14:41:53.193Z,22.03
2022-10-17T14:44:22.885Z,22.03
2022-10-17T14:46:53.907Z,22.03
2022-10-17T14:49:31.246Z,22.04
2022-10-17T14:52:25.540Z,22.04
2022-10-17T14:54:52.026Z,22.01
2022-10-17T14:57:47.787Z,22.04
2022-10-17T15:00:16.620Z,22.02
2022-10-17T15:02:44.099Z,22.02
2022-10-17T15:05:13.256Z,22.00
2022-10-17T15:07:40.522Z,22.00
2022-10-17T15:10:25.665Z,22.00
2022-10-17T15:12:58.863Z,21.99
2022-10-17T15:15:31.773Z,21.97
2022-10-17T15:17:58.986Z,21.97
2022-10-17T15:20:27.920Z,21.95
2022-10-17T15:22:55.253Z,21.95
2022-10-17T15:25:22.033Z,21.95
2022-10-17T15:27:48.413Z,21.92
2022-10-17T15:30:23.839Z,21.91
2022-10-17T15:32:51.772Z,21.88
2022-10-17T15:35:19.221Z,21.86
2022-10-17T15:37:48.955Z,21.84
2022-10-17T15:40:19.221Z,21.82
2022-10-17T15:42:45.624Z,21.80
2022-10-17T15:45:15.407Z,21.78
2022-10-17T15:47:43.507Z,21.76
2022-10-17T15:50:17.407Z,21.73
2022-10-17T15:52:43.964Z,21.68
2022-10-17T15:55:11.197Z,21.64
2022-10-17T15:57:40.992Z,21.60
2022-10-17T16:00:21.344Z,21.57
2022-10-17T16:02:49.251Z,21.53
2022-10-17T16:05:23.020Z,21.48
2022-10-17T16:07:55.941Z,21.44
2022-10-17T16:10:23.169Z,21.41
2022-10-17T16:12:50.260Z,21.38
2022-10-17T16:15:28.007Z,21.37
2022-10-17T16:17:56.158Z,21.33
2022-10-17T16:20:23.918Z,21.31
2022-10-17T16:22:51.606Z,21.28
2022-10-17T16:25:24.274Z,21.27
2022-10-17T16:27:53.089Z,21.24
2022-10-17T16:32:47.612Z,21.19
2022-10-17T16:35:24.472Z,21.18
2022-10-17T16:37:51.187Z,21.14
2022-10-17T16:40:17.646Z,21.12
2022-10-17T16:42:44.274Z,21.12
2022-10-17T16:45:17.544Z,21.11
2022-10-17T16:47:44.007Z,21.09
2022-10-17T16:50:10.530Z,21.09
2022-10-17T16:52:36.855Z,21.07
2022-10-17T16:55:03.346Z,21.04
2022-10-17T16:57:29.705Z,21.03
2022-10-17T16:59:56.123Z,21.01
2022-10-17T17:02:22.559Z,20.97
2022-10-17T17:04:48.959Z,20.95
2022-10-17T17:07:17.331Z,20.92
2022-10-17T17:09:43.676Z,20.90
2022-10-17T17:12:10.142Z,20.85
2022-10-17T17:14:36.635Z,20.82
2022-10-17T17:17:02.965Z,20.81
2022-10-17T17:19:29.344Z,20.79
2022-10-17T17:21:55.663Z,20.77
2022-10-17T17:24:22.183Z,20.78
2022-10-17T17:26:53.943Z,20.80
2022-10-17T17:29:21.267Z,20.79
2022-10-17T17:31:47.833Z,20.81
2022-10-17T17:34:17.241Z,20.81
2022-10-17T17:36:44.761Z,20.82
2022-10-17T17:39:13.182Z,20.82
2022-10-17T17:41:40.570Z,20.81
2022-10-17T17:44:10.125Z,20.80
2022-10-17T17:46:41.079Z,20.82
2022-10-17T17:49:07.434Z,20.80
2022-10-17T17:51:34.647Z,20.80
2022-10-17T17:54:01.118Z,20.79
2022-10-17T17:56:29.799Z,20.79
2022-10-17T17:58:58.590Z,20.80
2022-10-17T18:01:28.165Z,20.78
2022-10-17T18:03:56.327Z,20.77
2022-10-17T18:06:23.338Z,20.74
2022-10-17T18:08:56.227Z,20.72
2022-10-17T18:11:22.676Z,20.66
2022-10-17T18:13:55.989Z,20.63
2022-10-17T18:16:22.636Z,20.56
2022-10-17T18:18:49.248Z,20.51
2022-10-17T18:21:15.687Z,20.45
2022-10-17T18:23:45.519Z,20.40
2022-10-17T18:26:12.983Z,20.33
2022-10-17T18:31:19.079Z,20.22
2022-10-17T18:33:46.186Z,20.16
2022-10-17T18:36:14.533Z,20.13
2022-10-17T18:38:40.988Z,20.08
2022-10-17T18:41:16.494Z,20.05
2022-10-17T18:43:44.434Z,20.01
2022-10-17T18:46:14.946Z,19.98
2022-10-17T18:48:44.689Z,19.96
2022-10-17T18:51:12.927Z,19.91
2022-10-17T18:53:44.379Z,19.89
2022-10-17T18:56:11.873Z,19.83
2022-10-17T18:58:39.034Z,19.81
2022-10-17T19:01:09.438Z,19.78
2022-10-17T19:03:36.276Z,19.74
2022-10-17T19:06:08.123Z,19.72
2022-10-17T19:08:35.842Z,19.69
2022-10-17T19:11:11.522Z,19.66
2022-10-17T19:13:38.549Z,19.64
2022-10-17T19:16:10.082Z,19.61
2022-10-17T19:18:37.143Z,19.58
2022-10-17T19:21:05.666Z,19.56
2022-10-17T19:23:32.143Z,19.54
2022-10-17T19:26:10.047Z,19.52
2022-10-17T19:28:38.902Z,19.49
2022-10-17T19:31:06.211Z,19.47
2022-10-17T19:33:33.574Z,19.44
2022-10-17T19:36:06.533Z,19.43
2022-10-17T19:38:32.910Z,19.39
2022-10-17T19:43:31.503Z,19.37
2022-10-17T19:46:00.665Z,19.35
2022-10-17T19:48:28.075Z,19.34
2022-10-17T19:50:54.492Z,19.32
2022-10-17T19:53:23.310Z,19.32
2022-10-17T19:55:50.641Z,19.29
2022-10-17T19:58:17.491Z,19.28
2022-10-17T20:00:52.107Z,19.28
2022-10-17T20:03:18.720Z,19.26
2022-10-17T20:05:45.858Z,19.25
2022-10-17T20:08:12.501Z,19.23
2022-10-17T20:10:39.174Z,19.22
2022-10-17T20:13:05.524Z,19.20
2022-10-17T20:15:32.290Z,19.19
2022-10-17T20:17:58.741Z,19.18
2022-10-17T20:20:25.419Z,19.16
2022-10-17T20:22:51.950Z,19.15
2022-10-17T20:25:18.345Z,19.13
2022-10-17T20:27:44.965Z,19.13
2022-10-17T20:30:11.778Z,19.12
2022-10-17T20:32:39.957Z,19.12
2022-10-17T20:35:07.386Z,19.11
2022-10-17T20:37:38.550Z,19.10
2022-10-17T20:40:33.580Z,19.08
2022-10-17T20:42:54.886Z,19.08
2022-10-17T20:45:37.282Z,19.07
2022-10-17T20:48:15.103Z,19.07
2022-10-17T20:50:42.949Z,19.05
2022-10-17T20:53:31.837Z,19.03
2022-10-17T20:56:04.946Z,19.02
2022-10-17T20:58:31.378Z,18.99
2022-10-17T21:00:57.702Z,18.96
2022-10-17T21:03:24.321Z,18.94
2022-10-17T21:05:50.775Z,18.94
2022-10-17T21:08:17.473Z,18.92
2022-10-17T21:10:43.809Z,18.90
2022-10-17T21:13:10.147Z,18.88
2022-10-17T21:15:36.474Z,18.85
2022-10-17T21:18:02.948Z,18.83
2022-10-17T21:20:29.332Z,18.81
2022-10-17T21:22:57.222Z,18.80
2022-10-17T21:25:23.662Z,18.79
2022-10-17T21:27:52.603Z,18.78
2022-10-17T21:30:20.867Z,18.77
2022-10-17T21:32:51.512Z,18.76
2022-10-17T21:35:18.246Z,18.75
2022-10-17T21:37:44.573Z,18.73
2022-10-17T21:40:11.916Z,18.70
2022-10-17T21:42:38.243Z,18.68
2022-10-17T21:45:10.693Z,18.64
2022-10-17T21:47:54.859Z,18.61
2022-10-17T21:50:29.533Z,18.63
2022-10-17T21:52:58.034Z,18.60
2022-10-17T21:55:24.381Z,18.58
2022-10-17T21:57:51.490Z,18.55
2022-10-17T22:00:18.466Z,18.52
2022-10-17T22:02:44.785Z,18.51
2022-10-17T22:05:11.142Z,18.48
2022-10-17T22:07:37.450Z,18.46
2022-10-17T22:10:04.098Z,18.45
2022-10-17T22:12:30.638Z,18.45
2022-10-17T22:14:57.090Z,18.43
2022-10-17T22:17:23.518Z,18.42
2022-10-17T22:19:49.892Z,18.41
2022-10-17T22:22:16.228Z,18.40
2022-10-17T22:24:42.588Z,18.38
2022-10-17T22:27:10.306Z,18.37
2022-10-17T22:29:36.809Z,18.36
2022-10-17T22:32:03.143Z,18.36
2022-10-17T22:34:29.462Z,18.33
2022-10-17T22:36:55.810Z,18.32
2022-10-17T22:39:22.165Z,18.31
2022-10-17T22:41:48.534Z,18.29
2022-10-17T22:44:14.868Z,18.28
2022-10-17T22:46:41.214Z,18.26
2022-10-17T22:49:07.795Z,18.26
2022-10-17T22:51:34.164Z,18.24
2022-10-17T22:54:00.679Z,18.24
2022-10-17T22:56:27.129Z,18.23
2022-10-17T22:58:53.479Z,18.21
2022-10-17T23:01:23.918Z,18.21
2022-10-17T23:03:51.642Z,18.19
2022-10-17T23:06:19.038Z,18.18
2022-10-17T23:08:45.708Z,18.16
2022-10-17T23:11:12.243Z,18.14
2022-10-17T23:13:40.602Z,18.11
2022-10-17T23:16:07.907Z,18.06
2022-10-17T23:18:34.487Z,18.05
2022-10-17T23:21:00.826Z,18.03
2022-10-17T23:23:27.227Z,18.04
2022-10-17T23:25:53.551Z,18.05
2022-10-17T23:28:19.968Z,18.07
2022-10-17T23:30:46.690Z,18.09
2022-10-17T23:33:13.944Z,18.12
2022-10-17T23:35:40.414Z,18.13
2022-10-17T23:38:06.812Z,18.15
2022-10-17T23:40:34.720Z,18.16
2022-10-17T23:43:01.323Z,18.19
2022-10-17T23:45:28.004Z,18.21
2022-10-17T23:47:54.370Z,18.22
2022-10-17T23:50:20.803Z,18.25
2022-10-17T23:52:47.238Z,18.27
2022-10-17T23:55:13.652Z,18.28
2022-10-17T23:57:40.013Z,18.30
